sensor_id;sensor_type;location;lat;lon;timestamp;P1;durP1;ratioP1;P2;durP2;ratioP2
6564;SDS011;3316;44.118;27.258;2022-08-19T00:01:37;22.77;;;12.27;;
6564;SDS011;3316;44.118;27.258;2022-08-19T00:04:06;19.75;;;12.63;;
6564;SDS011;3316;44.118;27.258;2022-08-19T00:06:34;19.45;;;12.13;;
6564;SDS011;3316;44.118;27.258;2022-08-19T00:09:02;22.80;;;12.82;;
6564;SDS011;3316;44.118;27.258;2022-08-19T00:11:29;18.50;;;12.38;;
6564;SDS011;3316;44.118;27.258;2022-08-19T00:13:55;18.48;;;12.88;;
6564;SDS011;3316;44.118;27.258;2022-08-19T00:16:21;24.98;;;12.77;;
6564;SDS011;3316;44.118;27.258;2022-08-19T00:18:48;15.70;;;11.95;;
6564;SDS011;3316;44.118;27.258;2022-08-19T00:21:14;16.65;;;12.43;;
6564;SDS011;3316;44.118;27.258;2022-08-19T00:23:40;17.90;;;12.27;;
6564;SDS011;3316;44.118;27.258;2022-08-19T00:26:06;19.02;;;12.82;;
6564;SDS011;3316;44.118;27.258;2022-08-19T00:28:32;18.52;;;12.45;;
6564;SDS011;3316;44.118;27.258;2022-08-19T00:31:01;16.70;;;12.88;;
6564;SDS011;3316;44.118;27.258;2022-08-19T00:33:28;17.73;;;12.77;;
6564;SDS011;3316;44.118;27.258;2022-08-19T00:35:57;18.58;;;11.40;;
6564;SDS011;3316;44.118;27.258;2022-08-19T00:38:23;15.07;;;11.23;;
6564;SDS011;3316;44.118;27.258;2022-08-19T00:40:49;14.88;;;10.93;;
6564;SDS011;3316;44.118;27.258;2022-08-19T00:43:18;15.48;;;11.73;;
6564;SDS011;3316;44.118;27.258;2022-08-19T00:45:46;14.98;;;10.98;;
6564;SDS011;3316;44.118;27.258;2022-08-19T00:48:13;16.13;;;11.75;;
6564;SDS011;3316;44.118;27.258;2022-08-19T00:50:40;15.50;;;11.20;;
6564;SDS011;3316;44.118;27.258;2022-08-19T00:53:07;14.98;;;12.20;;
6564;SDS011;3316;44.118;27.258;2022-08-19T00:55:35;14.20;;;11.15;;
6564;SDS011;3316;44.118;27.258;2022-08-19T00:58:04;16.40;;;11.52;;
6564;SDS011;3316;44.118;27.258;2022-08-19T01:00:33;15.95;;;10.85;;
6564;SDS011;3316;44.118;27.258;2022-08-19T01:03:06;17.05;;;11.43;;
6564;SDS011;3316;44.118;27.258;2022-08-19T01:05:34;14.27;;;11.45;;
6564;SDS011;3316;44.118;27.258;2022-08-19T01:08:02;14.93;;;11.23;;
6564;SDS011;3316;44.118;27.258;2022-08-19T01:10:30;13.35;;;11.18;;
6564;SDS011;3316;44.118;27.258;2022-08-19T01:13:01;16.20;;;11.10;;
6564;SDS011;3316;44.118;27.258;2022-08-19T01:15:32;14.30;;;9.93;;
6564;SDS011;3316;44.118;27.258;2022-08-19T01:18:01;16.92;;;11.23;;
6564;SDS011;3316;44.118;27.258;2022-08-19T01:20:31;17.30;;;10.57;;
6564;SDS011;3316;44.118;27.258;2022-08-19T01:22:58;18.67;;;11.82;;
6564;SDS011;3316;44.118;27.258;2022-08-19T01:25:26;16.17;;;10.80;;
6564;SDS011;3316;44.118;27.258;2022-08-19T01:27:56;15.10;;;11.70;;
6564;SDS011;3316;44.118;27.258;2022-08-19T01:30:26;12.93;;;11.18;;
6564;SDS011;3316;44.118;27.258;2022-08-19T01:32:54;19.83;;;11.38;;
6564;SDS011;3316;44.118;27.258;2022-08-19T01:35:20;15.50;;;10.80;;
6564;SDS011;3316;44.118;27.258;2022-08-19T01:37:53;15.68;;;11.90;;
6564;SDS011;3316;44.118;27.258;2022-08-19T01:40:25;15.75;;;11.52;;
6564;SDS011;3316;44.118;27.258;2022-08-19T01:42:54;14.48;;;11.77;;
6564;SDS011;3316;44.118;27.258;2022-08-19T01:45:20;15.73;;;12.55;;
6564;SDS011;3316;44.118;27.258;2022-08-19T01:47:47;16.38;;;12.00;;
6564;SDS011;3316;44.118;27.258;2022-08-19T01:50:13;14.55;;;11.63;;
6564;SDS011;3316;44.118;27.258;2022-08-19T01:52:40;16.60;;;11.90;;
6564;SDS011;3316;44.118;27.258;2022-08-19T01:55:08;15.77;;;12.23;;
6564;SDS011;3316;44.118;27.258;2022-08-19T01:57:35;16.10;;;11.38;;
6564;SDS011;3316;44.118;27.258;2022-08-19T02:00:03;15.63;;;11.25;;
6564;SDS011;3316;44.118;27.258;2022-08-19T02:02:32;15.15;;;10.98;;
6564;SDS011;3316;44.118;27.258;2022-08-19T02:04:57;16.00;;;11.57;;
6564;SDS011;3316;44.118;27.258;2022-08-19T02:07:24;17.88;;;11.95;;
6564;SDS011;3316;44.118;27.258;2022-08-19T02:09:49;15.30;;;12.07;;
6564;SDS011;3316;44.118;27.258;2022-08-19T02:12:15;18.20;;;11.80;;
6564;SDS011;3316;44.118;27.258;2022-08-19T02:14:41;18.33;;;11.50;;
6564;SDS011;3316;44.118;27.258;2022-08-19T02:17:06;19.65;;;12.70;;
6564;SDS011;3316;44.118;27.258;2022-08-19T02:19:32;14.20;;;11.80;;
6564;SDS011;3316;44.118;27.258;2022-08-19T02:21:58;15.30;;;11.15;;
6564;SDS011;3316;44.118;27.258;2022-08-19T02:24:25;15.55;;;11.07;;
6564;SDS011;3316;44.118;27.258;2022-08-19T02:26:51;17.65;;;11.45;;
6564;SDS011;3316;44.118;27.258;2022-08-19T02:29:17;14.82;;;11.15;;
6564;SDS011;3316;44.118;27.258;2022-08-19T02:31:43;24.65;;;12.40;;
6564;SDS011;3316;44.118;27.258;2022-08-19T02:34:08;14.48;;;11.57;;
6564;SDS011;3316;44.118;27.258;2022-08-19T02:36:34;15.63;;;12.10;;
6564;SDS011;3316;44.118;27.258;2022-08-19T02:38:59;17.50;;;12.13;;
6564;SDS011;3316;44.118;27.258;2022-08-19T02:41:26;17.27;;;11.73;;
6564;SDS011;3316;44.118;27.258;2022-08-19T02:43:54;16.63;;;11.25;;
6564;SDS011;3316;44.118;27.258;2022-08-19T02:46:24;17.73;;;12.60;;
6564;SDS011;3316;44.118;27.258;2022-08-19T02:48:52;17.35;;;10.88;;
6564;SDS011;3316;44.118;27.258;2022-08-19T02:51:23;20.20;;;11.77;;
6564;SDS011;3316;44.118;27.258;2022-08-19T02:53:51;14.18;;;10.93;;
6564;SDS011;3316;44.118;27.258;2022-08-19T02:56:17;15.90;;;11.85;;
6564;SDS011;3316;44.118;27.258;2022-08-19T02:58:43;20.30;;;11.43;;
6564;SDS011;3316;44.118;27.258;2022-08-19T03:01:10;20.35;;;12.20;;
6564;SDS011;3316;44.118;27.258;2022-08-19T03:03:36;18.33;;;11.48;;
6564;SDS011;3316;44.118;27.258;2022-08-19T03:06:07;16.83;;;11.60;;
6564;SDS011;3316;44.118;27.258;2022-08-19T03:08:39;14.02;;;11.43;;
6564;SDS011;3316;44.118;27.258;2022-08-19T03:11:06;16.25;;;11.35;;
6564;SDS011;3316;44.118;27.258;2022-08-19T03:13:47;17.23;;;11.43;;
6564;SDS011;3316;44.118;27.258;2022-08-19T03:16:14;17.58;;;12.50;;
6564;SDS011;3316;44.118;27.258;2022-08-19T03:18:40;21.75;;;13.25;;
6564;SDS011;3316;44.118;27.258;2022-08-19T03:21:06;21.25;;;14.18;;
6564;SDS011;3316;44.118;27.258;2022-08-19T03:23:32;32.88;;;16.08;;
6564;SDS011;3316;44.118;27.258;2022-08-19T03:25:58;23.00;;;14.45;;
6564;SDS011;3316;44.118;27.258;2022-08-19T03:28:23;21.40;;;14.82;;
6564;SDS011;3316;44.118;27.258;2022-08-19T03:30:59;21.35;;;14.45;;
6564;SDS011;3316;44.118;27.258;2022-08-19T03:33:34;18.58;;;14.00;;
6564;SDS011;3316;44.118;27.258;2022-08-19T03:36:05;21.77;;;15.10;;
6564;SDS011;3316;44.118;27.258;2022-08-19T03:38:32;24.30;;;15.10;;
6564;SDS011;3316;44.118;27.258;2022-08-19T03:41:02;25.02;;;14.07;;
6564;SDS011;3316;44.118;27.258;2022-08-19T03:43:28;21.88;;;13.73;;
6564;SDS011;3316;44.118;27.258;2022-08-19T03:46:27;20.38;;;12.40;;
6564;SDS011;3316;44.118;27.258;2022-08-19T03:48:53;22.63;;;12.45;;
6564;SDS011;3316;44.118;27.258;2022-08-19T03:53:45;32.55;;;18.85;;
6564;SDS011;3316;44.118;27.258;2022-08-19T03:56:11;35.88;;;23.40;;
6564;SDS011;3316;44.118;27.258;2022-08-19T03:58:38;47.22;;;28.35;;
6564;SDS011;3316;44.118;27.258;2022-08-19T04:01:15;56.63;;;34.13;;
6564;SDS011;3316;44.118;27.258;2022-08-19T04:03:42;35.53;;;24.42;;
6564;SDS011;3316;44.118;27.258;2022-08-19T04:08:42;36.75;;;19.48;;
6564;SDS011;3316;44.118;27.258;2022-08-19T04:11:10;32.42;;;19.17;;
6564;SDS011;3316;44.118;27.258;2022-08-19T04:13:38;23.42;;;15.35;;
6564;SDS011;3316;44.118;27.258;2022-08-19T04:16:04;28.52;;;14.60;;
6564;SDS011;3316;44.118;27.258;2022-08-19T04:18:31;17.38;;;13.68;;
6564;SDS011;3316;44.118;27.258;2022-08-19T04:20:58;23.38;;;14.40;;
6564;SDS011;3316;44.118;27.258;2022-08-19T04:23:24;27.25;;;14.48;;
6564;SDS011;3316;44.118;27.258;2022-08-19T04:25:50;23.00;;;13.95;;
6564;SDS011;3316;44.118;27.258;2022-08-19T04:28:16;28.48;;;15.35;;
6564;SDS011;3316;44.118;27.258;2022-08-19T04:30:43;18.20;;;13.55;;
6564;SDS011;3316;44.118;27.258;2022-08-19T04:33:11;20.33;;;14.02;;
6564;SDS011;3316;44.118;27.258;2022-08-19T04:35:45;16.92;;;12.27;;
6564;SDS011;3316;44.118;27.258;2022-08-19T04:38:12;26.60;;;14.30;;
6564;SDS011;3316;44.118;27.258;2022-08-19T04:40:42;36.63;;;19.15;;
6564;SDS011;3316;44.118;27.258;2022-08-19T04:43:30;23.40;;;11.88;;
6564;SDS011;3316;44.118;27.258;2022-08-19T04:45:57;26.58;;;11.50;;
6564;SDS011;3316;44.118;27.258;2022-08-19T04:48:23;20.40;;;14.50;;
6564;SDS011;3316;44.118;27.258;2022-08-19T04:50:52;20.55;;;13.13;;
6564;SDS011;3316;44.118;27.258;2022-08-19T04:53:23;34.25;;;15.70;;
6564;SDS011;3316;44.118;27.258;2022-08-19T04:55:54;29.33;;;16.40;;
6564;SDS011;3316;44.118;27.258;2022-08-19T04:58:21;28.33;;;13.73;;
6564;SDS011;3316;44.118;27.258;2022-08-19T05:00:47;25.13;;;11.98;;
6564;SDS011;3316;44.118;27.258;2022-08-19T05:03:12;32.38;;;16.75;;
6564;SDS011;3316;44.118;27.258;2022-08-19T05:05:40;53.03;;;25.33;;
6564;SDS011;3316;44.118;27.258;2022-08-19T05:08:06;33.83;;;17.00;;
6564;SDS011;3316;44.118;27.258;2022-08-19T05:10:34;42.42;;;22.35;;
6564;SDS011;3316;44.118;27.258;2022-08-19T05:13:01;26.55;;;14.60;;
6564;SDS011;3316;44.118;27.258;2022-08-19T05:15:26;19.17;;;11.98;;
6564;SDS011;3316;44.118;27.258;2022-08-19T05:17:52;29.40;;;15.82;;
6564;SDS011;3316;44.118;27.258;2022-08-19T05:20:37;43.72;;;22.45;;
6564;SDS011;3316;44.118;27.258;2022-08-19T05:23:22;18.67;;;11.68;;
6564;SDS011;3316;44.118;27.258;2022-08-19T05:25:47;18.05;;;11.30;;
6564;SDS011;3316;44.118;27.258;2022-08-19T05:28:13;17.45;;;12.40;;
6564;SDS011;3316;44.118;27.258;2022-08-19T05:30:38;20.02;;;12.00;;
6564;SDS011;3316;44.118;27.258;2022-08-19T05:33:06;20.42;;;12.85;;
6564;SDS011;3316;44.118;27.258;2022-08-19T05:35:36;22.40;;;14.85;;
6564;SDS011;3316;44.118;27.258;2022-08-19T05:38:02;17.20;;;12.38;;
6564;SDS011;3316;44.118;27.258;2022-08-19T05:40:28;55.42;;;26.88;;
6564;SDS011;3316;44.118;27.258;2022-08-19T05:42:54;15.48;;;12.68;;
6564;SDS011;3316;44.118;27.258;2022-08-19T05:45:19;21.48;;;11.52;;
6564;SDS011;3316;44.118;27.258;2022-08-19T05:47:46;14.90;;;9.40;;
6564;SDS011;3316;44.118;27.258;2022-08-19T05:50:12;13.18;;;10.65;;
6564;SDS011;3316;44.118;27.258;2022-08-19T05:52:38;24.15;;;12.00;;
6564;SDS011;3316;44.118;27.258;2022-08-19T05:55:04;13.60;;;9.80;;
6564;SDS011;3316;44.118;27.258;2022-08-19T05:57:30;12.50;;;9.05;;
6564;SDS011;3316;44.118;27.258;2022-08-19T05:59:56;14.15;;;10.15;;
6564;SDS011;3316;44.118;27.258;2022-08-19T06:02:22;12.98;;;9.80;;
6564;SDS011;3316;44.118;27.258;2022-08-19T06:04:48;16.80;;;10.18;;
6564;SDS011;3316;44.118;27.258;2022-08-19T06:07:14;15.80;;;10.65;;
6564;SDS011;3316;44.118;27.258;2022-08-19T06:09:40;14.18;;;9.25;;
6564;SDS011;3316;44.118;27.258;2022-08-19T06:12:06;17.02;;;9.32;;
6564;SDS011;3316;44.118;27.258;2022-08-19T06:14:32;16.23;;;10.75;;
6564;SDS011;3316;44.118;27.258;2022-08-19T06:16:59;23.02;;;12.30;;
6564;SDS011;3316;44.118;27.258;2022-08-19T06:19:27;14.65;;;11.15;;
6564;SDS011;3316;44.118;27.258;2022-08-19T06:21:55;18.25;;;10.32;;
6564;SDS011;3316;44.118;27.258;2022-08-19T06:24:23;14.45;;;11.02;;
6564;SDS011;3316;44.118;27.258;2022-08-19T06:26:52;16.15;;;12.30;;
6564;SDS011;3316;44.118;27.258;2022-08-19T06:29:20;17.60;;;10.52;;
6564;SDS011;3316;44.118;27.258;2022-08-19T06:31:49;18.48;;;9.20;;
6564;SDS011;3316;44.118;27.258;2022-08-19T06:34:16;13.65;;;8.63;;
6564;SDS011;3316;44.118;27.258;2022-08-19T06:36:44;12.70;;;8.65;;
6564;SDS011;3316;44.118;27.258;2022-08-19T06:39:15;14.15;;;9.85;;
6564;SDS011;3316;44.118;27.258;2022-08-19T06:41:53;18.83;;;9.63;;
6564;SDS011;3316;44.118;27.258;2022-08-19T06:44:22;16.05;;;9.65;;
6564;SDS011;3316;44.118;27.258;2022-08-19T06:46:50;12.98;;;9.10;;
6564;SDS011;3316;44.118;27.258;2022-08-19T06:49:16;15.02;;;9.00;;
6564;SDS011;3316;44.118;27.258;2022-08-19T06:51:43;11.75;;;9.10;;
6564;SDS011;3316;44.118;27.258;2022-08-19T06:54:12;15.77;;;9.45;;
6564;SDS011;3316;44.118;27.258;2022-08-19T06:56:37;13.63;;;9.18;;
6564;SDS011;3316;44.118;27.258;2022-08-19T06:59:07;16.77;;;9.98;;
6564;SDS011;3316;44.118;27.258;2022-08-19T07:01:36;20.48;;;9.95;;
6564;SDS011;3316;44.118;27.258;2022-08-19T07:04:03;19.75;;;9.93;;
6564;SDS011;3316;44.118;27.258;2022-08-19T07:06:34;14.55;;;9.13;;
6564;SDS011;3316;44.118;27.258;2022-08-19T07:09:00;18.25;;;9.90;;
6564;SDS011;3316;44.118;27.258;2022-08-19T07:11:26;12.45;;;9.48;;
6564;SDS011;3316;44.118;27.258;2022-08-19T07:13:52;15.30;;;8.93;;
6564;SDS011;3316;44.118;27.258;2022-08-19T07:16:18;14.10;;;9.52;;
6564;SDS011;3316;44.118;27.258;2022-08-19T07:18:48;18.33;;;8.88;;
6564;SDS011;3316;44.118;27.258;2022-08-19T07:21:15;18.55;;;9.32;;
6564;SDS011;3316;44.118;27.258;2022-08-19T07:23:50;20.02;;;11.90;;
6564;SDS011;3316;44.118;27.258;2022-08-19T07:26:27;17.13;;;10.68;;
6564;SDS011;3316;44.118;27.258;2022-08-19T07:28:55;18.48;;;11.20;;
6564;SDS011;3316;44.118;27.258;2022-08-19T07:31:23;26.65;;;14.35;;
6564;SDS011;3316;44.118;27.258;2022-08-19T07:33:51;18.58;;;10.35;;
6564;SDS011;3316;44.118;27.258;2022-08-19T07:36:19;12.35;;;8.30;;
6564;SDS011;3316;44.118;27.258;2022-08-19T07:38:48;12.55;;;7.85;;
6564;SDS011;3316;44.118;27.258;2022-08-19T07:41:16;13.40;;;10.63;;
6564;SDS011;3316;44.118;27.258;2022-08-19T07:43:44;12.48;;;8.05;;
6564;SDS011;3316;44.118;27.258;2022-08-19T07:46:10;13.20;;;8.93;;
6564;SDS011;3316;44.118;27.258;2022-08-19T07:48:38;18.90;;;8.30;;
6564;SDS011;3316;44.118;27.258;2022-08-19T07:51:06;24.88;;;11.82;;
6564;SDS011;3316;44.118;27.258;2022-08-19T07:53:34;22.70;;;9.82;;
6564;SDS011;3316;44.118;27.258;2022-08-19T07:56:00;17.80;;;10.73;;
6564;SDS011;3316;44.118;27.258;2022-08-19T07:58:27;17.63;;;8.82;;
6564;SDS011;3316;44.118;27.258;2022-08-19T08:00:53;12.32;;;7.88;;
6564;SDS011;3316;44.118;27.258;2022-08-19T08:03:19;16.38;;;8.57;;
6564;SDS011;3316;44.118;27.258;2022-08-19T08:06:07;17.25;;;8.57;;
6564;SDS011;3316;44.118;27.258;2022-08-19T08:08:51;15.77;;;8.52;;
6564;SDS011;3316;44.118;27.258;2022-08-19T08:11:35;19.23;;;7.90;;
6564;SDS011;3316;44.118;27.258;2022-08-19T08:14:00;16.02;;;8.13;;
6564;SDS011;3316;44.118;27.258;2022-08-19T08:16:26;15.80;;;7.68;;
6564;SDS011;3316;44.118;27.258;2022-08-19T08:18:55;12.00;;;7.32;;
6564;SDS011;3316;44.118;27.258;2022-08-19T08:21:20;14.38;;;8.40;;
6564;SDS011;3316;44.118;27.258;2022-08-19T08:23:45;13.38;;;6.97;;
6564;SDS011;3316;44.118;27.258;2022-08-19T08:26:11;38.42;;;15.35;;
6564;SDS011;3316;44.118;27.258;2022-08-19T08:28:38;28.80;;;14.90;;
6564;SDS011;3316;44.118;27.258;2022-08-19T08:31:03;13.32;;;8.40;;
6564;SDS011;3316;44.118;27.258;2022-08-19T08:33:29;15.45;;;7.72;;
6564;SDS011;3316;44.118;27.258;2022-08-19T08:35:55;18.90;;;7.57;;
6564;SDS011;3316;44.118;27.258;2022-08-19T08:38:21;12.75;;;7.72;;
6564;SDS011;3316;44.118;27.258;2022-08-19T08:40:53;10.43;;;7.47;;
6564;SDS011;3316;44.118;27.258;2022-08-19T08:43:35;12.85;;;6.93;;
6564;SDS011;3316;44.118;27.258;2022-08-19T08:46:13;12.88;;;6.75;;
6564;SDS011;3316;44.118;27.258;2022-08-19T08:48:58;12.82;;;6.57;;
6564;SDS011;3316;44.118;27.258;2022-08-19T08:51:35;18.35;;;7.15;;
6564;SDS011;3316;44.118;27.258;2022-08-19T08:54:08;23.10;;;13.27;;
6564;SDS011;3316;44.118;27.258;2022-08-19T08:56:38;17.17;;;8.98;;
6564;SDS011;3316;44.118;27.258;2022-08-19T09:01:51;40.90;;;20.85;;
6564;SDS011;3316;44.118;27.258;2022-08-19T09:04:16;29.92;;;13.68;;
6564;SDS011;3316;44.118;27.258;2022-08-19T09:07:09;11.10;;;6.82;;
6564;SDS011;3316;44.118;27.258;2022-08-19T09:09:36;13.05;;;6.05;;
6564;SDS011;3316;44.118;27.258;2022-08-19T09:15:08;9.40;;;6.10;;
6564;SDS011;3316;44.118;27.258;2022-08-19T09:17:36;13.85;;;7.53;;
6564;SDS011;3316;44.118;27.258;2022-08-19T09:20:14;12.15;;;6.47;;
6564;SDS011;3316;44.118;27.258;2022-08-19T09:22:44;12.70;;;6.85;;
6564;SDS011;3316;44.118;27.258;2022-08-19T09:25:14;9.13;;;6.18;;
6564;SDS011;3316;44.118;27.258;2022-08-19T09:27:41;16.58;;;6.75;;
6564;SDS011;3316;44.118;27.258;2022-08-19T09:30:08;11.70;;;6.70;;
6564;SDS011;3316;44.118;27.258;2022-08-19T09:32:37;14.73;;;7.10;;
6564;SDS011;3316;44.118;27.258;2022-08-19T09:35:04;12.10;;;7.05;;
6564;SDS011;3316;44.118;27.258;2022-08-19T09:37:31;14.18;;;7.68;;
6564;SDS011;3316;44.118;27.258;2022-08-19T09:39:56;18.50;;;6.53;;
6564;SDS011;3316;44.118;27.258;2022-08-19T09:42:22;10.80;;;6.03;;
6564;SDS011;3316;44.118;27.258;2022-08-19T09:44:48;15.75;;;5.95;;
6564;SDS011;3316;44.118;27.258;2022-08-19T09:47:13;12.90;;;6.65;;
6564;SDS011;3316;44.118;27.258;2022-08-19T09:49:40;14.65;;;6.60;;
6564;SDS011;3316;44.118;27.258;2022-08-19T09:52:07;15.30;;;6.47;;
6564;SDS011;3316;44.118;27.258;2022-08-19T09:54:34;15.05;;;7.20;;
6564;SDS011;3316;44.118;27.258;2022-08-19T09:57:00;20.92;;;6.53;;
6564;SDS011;3316;44.118;27.258;2022-08-19T09:59:25;11.57;;;6.28;;
6564;SDS011;3316;44.118;27.258;2022-08-19T10:01:51;16.05;;;7.22;;
6564;SDS011;3316;44.118;27.258;2022-08-19T10:04:17;14.98;;;6.22;;
6564;SDS011;3316;44.118;27.258;2022-08-19T10:06:44;10.75;;;6.57;;
6564;SDS011;3316;44.118;27.258;2022-08-19T10:09:12;16.08;;;6.47;;
6564;SDS011;3316;44.118;27.258;2022-08-19T10:11:40;17.58;;;6.75;;
6564;SDS011;3316;44.118;27.258;2022-08-19T10:14:06;10.07;;;6.15;;
6564;SDS011;3316;44.118;27.258;2022-08-19T10:16:32;13.55;;;6.55;;
6564;SDS011;3316;44.118;27.258;2022-08-19T10:18:58;11.88;;;6.40;;
6564;SDS011;3316;44.118;27.258;2022-08-19T10:21:29;14.77;;;6.85;;
6564;SDS011;3316;44.118;27.258;2022-08-19T10:23:57;16.58;;;7.28;;
6564;SDS011;3316;44.118;27.258;2022-08-19T10:26:27;9.30;;;6.35;;
6564;SDS011;3316;44.118;27.258;2022-08-19T10:28:55;15.07;;;6.50;;
6564;SDS011;3316;44.118;27.258;2022-08-19T10:31:23;11.27;;;6.43;;
6564;SDS011;3316;44.118;27.258;2022-08-19T10:33:53;11.77;;;6.43;;
6564;SDS011;3316;44.118;27.258;2022-08-19T10:36:24;18.60;;;5.70;;
6564;SDS011;3316;44.118;27.258;2022-08-19T10:38:52;10.27;;;5.63;;
6564;SDS011;3316;44.118;27.258;2022-08-19T10:41:22;16.00;;;5.95;;
6564;SDS011;3316;44.118;27.258;2022-08-19T10:43:56;13.93;;;6.60;;
6564;SDS011;3316;44.118;27.258;2022-08-19T10:46:23;16.65;;;6.65;;
6564;SDS011;3316;44.118;27.258;2022-08-19T10:48:51;12.85;;;6.60;;
6564;SDS011;3316;44.118;27.258;2022-08-19T10:51:18;15.45;;;6.07;;
6564;SDS011;3316;44.118;27.258;2022-08-19T10:54:03;16.90;;;6.63;;
6564;SDS011;3316;44.118;27.258;2022-08-19T10:56:29;10.00;;;6.90;;
6564;SDS011;3316;44.118;27.258;2022-08-19T10:59:15;13.77;;;5.78;;
6564;SDS011;3316;44.118;27.258;2022-08-19T11:01:41;14.55;;;6.55;;
6564;SDS011;3316;44.118;27.258;2022-08-19T11:04:09;13.00;;;6.30;;
6564;SDS011;3316;44.118;27.258;2022-08-19T11:06:36;13.95;;;6.70;;
6564;SDS011;3316;44.118;27.258;2022-08-19T11:09:03;17.90;;;8.35;;
6564;SDS011;3316;44.118;27.258;2022-08-19T11:11:30;13.85;;;6.03;;
6564;SDS011;3316;44.118;27.258;2022-08-19T11:13:57;12.73;;;5.82;;
6564;SDS011;3316;44.118;27.258;2022-08-19T11:16:24;9.68;;;6.72;;
6564;SDS011;3316;44.118;27.258;2022-08-19T11:18:56;20.65;;;9.50;;
6564;SDS011;3316;44.118;27.258;2022-08-19T11:21:28;13.82;;;6.78;;
6564;SDS011;3316;44.118;27.258;2022-08-19T11:23:58;19.27;;;6.63;;
6564;SDS011;3316;44.118;27.258;2022-08-19T11:26:27;11.52;;;5.95;;
6564;SDS011;3316;44.118;27.258;2022-08-19T11:28:54;15.35;;;6.75;;
6564;SDS011;3316;44.118;27.258;2022-08-19T11:31:24;13.50;;;5.60;;
6564;SDS011;3316;44.118;27.258;2022-08-19T11:33:56;7.90;;;5.55;;
6564;SDS011;3316;44.118;27.258;2022-08-19T11:36:22;11.55;;;6.40;;
6564;SDS011;3316;44.118;27.258;2022-08-19T11:38:48;19.00;;;5.93;;
6564;SDS011;3316;44.118;27.258;2022-08-19T11:41:15;14.43;;;6.00;;
6564;SDS011;3316;44.118;27.258;2022-08-19T11:43:42;15.90;;;6.28;;
6564;SDS011;3316;44.118;27.258;2022-08-19T11:46:09;18.75;;;8.40;;
6564;SDS011;3316;44.118;27.258;2022-08-19T11:48:36;11.93;;;7.38;;
6564;SDS011;3316;44.118;27.258;2022-08-19T11:51:07;14.73;;;6.80;;
6564;SDS011;3316;44.118;27.258;2022-08-19T11:53:36;12.88;;;6.60;;
6564;SDS011;3316;44.118;27.258;2022-08-19T11:56:02;10.18;;;6.30;;
6564;SDS011;3316;44.118;27.258;2022-08-19T11:58:29;10.93;;;6.28;;
6564;SDS011;3316;44.118;27.258;2022-08-19T12:00:55;14.85;;;5.95;;
6564;SDS011;3316;44.118;27.258;2022-08-19T12:03:21;12.13;;;6.22;;
6564;SDS011;3316;44.118;27.258;2022-08-19T12:05:47;11.98;;;6.80;;
6564;SDS011;3316;44.118;27.258;2022-08-19T12:08:12;17.10;;;6.55;;
6564;SDS011;3316;44.118;27.258;2022-08-19T12:10:39;10.07;;;6.15;;
6564;SDS011;3316;44.118;27.258;2022-08-19T12:13:06;13.45;;;6.47;;
6564;SDS011;3316;44.118;27.258;2022-08-19T12:15:39;20.75;;;6.30;;
6564;SDS011;3316;44.118;27.258;2022-08-19T12:18:06;14.38;;;6.00;;
6564;SDS011;3316;44.118;27.258;2022-08-19T12:20:36;8.23;;;5.80;;
6564;SDS011;3316;44.118;27.258;2022-08-19T12:23:04;8.00;;;5.50;;
6564;SDS011;3316;44.118;27.258;2022-08-19T12:25:33;13.20;;;6.57;;
6564;SDS011;3316;44.118;27.258;2022-08-19T12:27:59;17.00;;;6.00;;
6564;SDS011;3316;44.118;27.258;2022-08-19T12:30:25;9.05;;;5.43;;
6564;SDS011;3316;44.118;27.258;2022-08-19T12:32:51;14.65;;;6.13;;
6564;SDS011;3316;44.118;27.258;2022-08-19T12:35:17;15.07;;;6.00;;
6564;SDS011;3316;44.118;27.258;2022-08-19T12:37:45;11.38;;;6.10;;
6564;SDS011;3316;44.118;27.258;2022-08-19T12:40:12;12.63;;;6.20;;
6564;SDS011;3316;44.118;27.258;2022-08-19T12:42:38;15.65;;;6.65;;
6564;SDS011;3316;44.118;27.258;2022-08-19T12:45:07;16.85;;;5.90;;
6564;SDS011;3316;44.118;27.258;2022-08-19T12:47:36;13.43;;;6.80;;
6564;SDS011;3316;44.118;27.258;2022-08-19T12:50:03;11.60;;;6.00;;
6564;SDS011;3316;44.118;27.258;2022-08-19T12:52:33;11.20;;;6.07;;
6564;SDS011;3316;44.118;27.258;2022-08-19T12:55:02;11.68;;;5.90;;
6564;SDS011;3316;44.118;27.258;2022-08-19T12:57:29;10.40;;;5.65;;
6564;SDS011;3316;44.118;27.258;2022-08-19T12:59:56;17.48;;;6.32;;
6564;SDS011;3316;44.118;27.258;2022-08-19T13:02:21;10.18;;;6.03;;
6564;SDS011;3316;44.118;27.258;2022-08-19T13:04:47;11.65;;;6.20;;
6564;SDS011;3316;44.118;27.258;2022-08-19T13:07:13;15.50;;;7.00;;
6564;SDS011;3316;44.118;27.258;2022-08-19T13:09:38;10.95;;;5.90;;
6564;SDS011;3316;44.118;27.258;2022-08-19T13:12:06;14.70;;;7.28;;
6564;SDS011;3316;44.118;27.258;2022-08-19T13:14:37;15.02;;;6.60;;
6564;SDS011;3316;44.118;27.258;2022-08-19T13:17:03;10.18;;;5.40;;
6564;SDS011;3316;44.118;27.258;2022-08-19T13:19:29;15.10;;;6.53;;
6564;SDS011;3316;44.118;27.258;2022-08-19T13:21:55;12.85;;;6.22;;
6564;SDS011;3316;44.118;27.258;2022-08-19T13:24:22;17.90;;;6.60;;
6564;SDS011;3316;44.118;27.258;2022-08-19T13:26:48;11.55;;;5.72;;
6564;SDS011;3316;44.118;27.258;2022-08-19T13:29:13;11.38;;;5.93;;
6564;SDS011;3316;44.118;27.258;2022-08-19T13:31:57;17.90;;;6.22;;
6564;SDS011;3316;44.118;27.258;2022-08-19T13:34:42;17.67;;;6.47;;
6564;SDS011;3316;44.118;27.258;2022-08-19T13:37:07;13.85;;;6.28;;
6564;SDS011;3316;44.118;27.258;2022-08-19T13:39:33;12.73;;;6.13;;
6564;SDS011;3316;44.118;27.258;2022-08-19T13:42:00;21.02;;;6.40;;
6564;SDS011;3316;44.118;27.258;2022-08-19T13:44:27;16.08;;;5.93;;
6564;SDS011;3316;44.118;27.258;2022-08-19T13:46:54;8.75;;;5.68;;
6564;SDS011;3316;44.118;27.258;2022-08-19T13:49:25;18.27;;;7.25;;
6564;SDS011;3316;44.118;27.258;2022-08-19T13:51:55;13.45;;;7.13;;
6564;SDS011;3316;44.118;27.258;2022-08-19T13:54:20;16.27;;;6.13;;
6564;SDS011;3316;44.118;27.258;2022-08-19T13:56:45;13.25;;;6.32;;
6564;SDS011;3316;44.118;27.258;2022-08-19T13:59:11;15.75;;;6.30;;
6564;SDS011;3316;44.118;27.258;2022-08-19T14:01:37;9.48;;;5.55;;
6564;SDS011;3316;44.118;27.258;2022-08-19T14:04:03;14.60;;;5.97;;
6564;SDS011;3316;44.118;27.258;2022-08-19T14:06:30;16.95;;;6.93;;
6564;SDS011;3316;44.118;27.258;2022-08-19T14:08:56;11.65;;;5.68;;
6564;SDS011;3316;44.118;27.258;2022-08-19T14:11:21;20.92;;;6.47;;
6564;SDS011;3316;44.118;27.258;2022-08-19T14:13:48;12.38;;;6.13;;
6564;SDS011;3316;44.118;27.258;2022-08-19T14:16:13;10.63;;;6.10;;
6564;SDS011;3316;44.118;27.258;2022-08-19T14:18:39;12.45;;;6.90;;
6564;SDS011;3316;44.118;27.258;2022-08-19T14:21:06;16.30;;;7.20;;
6564;SDS011;3316;44.118;27.258;2022-08-19T14:23:32;13.63;;;6.32;;
6564;SDS011;3316;44.118;27.258;2022-08-19T14:26:06;50.33;;;23.30;;
6564;SDS011;3316;44.118;27.258;2022-08-19T14:28:34;11.50;;;6.20;;
6564;SDS011;3316;44.118;27.258;2022-08-19T14:30:59;13.75;;;6.15;;
6564;SDS011;3316;44.118;27.258;2022-08-19T14:33:25;13.60;;;7.05;;
6564;SDS011;3316;44.118;27.258;2022-08-19T14:35:50;35.20;;;11.95;;
6564;SDS011;3316;44.118;27.258;2022-08-19T14:38:16;23.45;;;10.40;;
6564;SDS011;3316;44.118;27.258;2022-08-19T14:40:43;11.13;;;6.85;;
6564;SDS011;3316;44.118;27.258;2022-08-19T14:43:09;9.52;;;5.57;;
6564;SDS011;3316;44.118;27.258;2022-08-19T14:45:35;10.57;;;5.68;;
6564;SDS011;3316;44.118;27.258;2022-08-19T14:48:03;17.88;;;7.35;;
6564;SDS011;3316;44.118;27.258;2022-08-19T14:50:29;12.18;;;6.63;;
6564;SDS011;3316;44.118;27.258;2022-08-19T14:52:59;9.70;;;6.90;;
6564;SDS011;3316;44.118;27.258;2022-08-19T14:55:30;20.80;;;6.45;;
6564;SDS011;3316;44.118;27.258;2022-08-19T14:57:56;12.13;;;6.00;;
6564;SDS011;3316;44.118;27.258;2022-08-19T15:00:22;12.98;;;6.15;;